createdAt,value
2023-03-11T00:00:49.854Z,97841.15
2023-03-11T00:03:29.413Z,97838.05
2023-03-11T00:06:01.266Z,97827.89
2023-03-11T00:08:30.250Z,97814.83
2023-03-11T00:11:00.973Z,97803.59
2023-03-11T00:13:30.452Z,97792.75
2023-03-11T00:16:01.015Z,97772.52
2023-03-11T00:18:31.947Z,97756.63
2023-03-11T00:21:01.177Z,97745.77
2023-03-11T00:23:30.347Z,97729.33
2023-03-11T00:26:01.488Z,97722.34
2023-03-11T00:28:30.809Z,97718.11
2023-03-11T00:31:00.958Z,97716.73
2023-03-11T00:33:29.801Z,97717.91
2023-03-11T00:35:58.727Z,97726.86
2023-03-11T00:38:27.734Z,97737.94
2023-03-11T00:40:56.460Z,97738.97
2023-03-11T00:43:24.941Z,97740.66
2023-03-11T00:45:53.318Z,97731.20
2023-03-11T00:48:22.088Z,97729.27
2023-03-11T00:50:50.902Z,97721.23
2023-03-11T00:53:19.990Z,97719.34
2023-03-11T00:55:48.579Z,97709.95
2023-03-11T00:58:17.265Z,97720.10
2023-03-11T01:00:49.850Z,97718.60
2023-03-11T01:03:18.529Z,97708.23
2023-03-11T01:05:47.503Z,97693.52
2023-03-11T01:08:16.024Z,97690.08
2023-03-11T01:10:44.580Z,97692.77
2023-03-11T01:13:14.400Z,97682.36
2023-03-11T01:15:42.961Z,97671.02
2023-03-11T01:18:11.356Z,97659.44
2023-03-11T01:20:40.041Z,97654.60
2023-03-11T01:23:09.191Z,97651.86
2023-03-11T01:25:37.826Z,97646.39
2023-03-11T01:28:08.692Z,97647.25
2023-03-11T01:30:38.889Z,97642.84
2023-03-11T01:33:09.713Z,97638.40
2023-03-11T01:35:42.612Z,97644.05
2023-03-11T01:38:12.246Z,97641.09
2023-03-11T01:40:43.760Z,97634.23
2023-03-11T01:43:35.898Z,97631.90
2023-03-11T01:46:17.445Z,97627.43
2023-03-11T01:48:57.531Z,97619.81
2023-03-11T01:51:38.852Z,97622.76
2023-03-11T01:54:30.025Z,97620.67
2023-03-11T01:56:59.732Z,97612.84
2023-03-11T01:59:36.536Z,97611.48
2023-03-11T02:02:24.238Z,97605.59
2023-03-11T02:04:54.667Z,97603.75
2023-03-11T02:07:25.318Z,97599.47
2023-03-11T02:09:54.493Z,97599.48
2023-03-11T02:12:23.597Z,97594.10
2023-03-11T02:14:54.809Z,97588.80
2023-03-11T02:17:23.628Z,97585.42
2023-03-11T02:20:32.865Z,97577.73
2023-03-11T02:23:02.335Z,97580.58
2023-03-11T02:25:58.441Z,97575.30
2023-03-11T02:28:28.041Z,97566.05
2023-03-11T02:30:57.520Z,97563.90
2023-03-11T02:33:30.332Z,97558.68
2023-03-11T02:35:59.170Z,97555.48
2023-03-11T02:38:28.309Z,97548.67
2023-03-11T02:40:59.159Z,97546.38
2023-03-11T02:43:49.028Z,97545.72
2023-03-11T02:46:18.373Z,97536.60
2023-03-11T02:48:48.932Z,97530.05
2023-03-11T02:51:17.614Z,97528.44
2023-03-11T02:53:57.044Z,97526.64
2023-03-11T02:56:25.840Z,97526.88
2023-03-11T02:58:54.934Z,97528.36
2023-03-11T03:01:23.758Z,97527.66
2023-03-11T03:03:52.532Z,97511.92
2023-03-11T03:06:21.396Z,97504.79
2023-03-11T03:08:51.333Z,97511.55
2023-03-11T03:11:20.094Z,97508.61
2023-03-11T03:13:49.909Z,97502.59
2023-03-11T03:16:18.740Z,97492.02
2023-03-11T03:18:47.488Z,97492.65
2023-03-11T03:21:16.276Z,97496.81
2023-03-11T03:23:44.929Z,97497.43
2023-03-11T03:26:14.624Z,97494.89
2023-03-11T03:28:43.775Z,97494.66
2023-03-11T03:31:12.856Z,97493.35
2023-03-11T03:33:42.674Z,97491.30
2023-03-11T03:36:14.042Z,97486.58
2023-03-11T03:38:49.265Z,97482.48
2023-03-11T03:41:18.255Z,97478.98
2023-03-11T03:43:47.039Z,97473.23
2023-03-11T03:46:16.260Z,97475.48
2023-03-11T03:48:47.390Z,97474.59
2023-03-11T03:51:17.228Z,97473.23
2023-03-11T03:53:57.261Z,97473.11
2023-03-11T03:56:26.651Z,97473.81
2023-03-11T03:58:55.539Z,97473.36
2023-03-11T04:01:25.967Z,97466.97
2023-03-11T04:03:54.856Z,97467.89
2023-03-11T04:06:25.598Z,97466.87
2023-03-11T04:09:00.978Z,97467.19
2023-03-11T04:11:33.110Z,97458.91
2023-03-11T04:14:02.911Z,97455.21
2023-03-11T04:16:32.513Z,97461.65
2023-03-11T04:19:06.222Z,97454.98
2023-03-11T04:21:35.522Z,97452.08
2023-03-11T04:24:04.418Z,97449.01
2023-03-11T04:26:36.081Z,97455.94
2023-03-11T04:29:04.673Z,97453.30
2023-03-11T04:31:35.893Z,97450.84
2023-03-11T04:34:06.937Z,97445.35
2023-03-11T04:36:36.845Z,97441.95
2023-03-11T04:39:05.851Z,97427.00
2023-03-11T04:41:38.040Z,97414.30
2023-03-11T04:44:07.032Z,97409.50
2023-03-11T04:46:35.928Z,97401.27
2023-03-11T04:49:05.403Z,97393.23
2023-03-11T04:51:34.080Z,97389.37
2023-03-11T04:54:02.760Z,97390.94
2023-03-11T04:56:31.551Z,97385.39
2023-03-11T04:59:01.161Z,97382.31
2023-03-11T05:01:30.525Z,97385.05
2023-03-11T05:03:59.911Z,97380.13
2023-03-11T05:06:28.545Z,97380.02
2023-03-11T05:08:57.136Z,97372.51
2023-03-11T05:11:26.226Z,97367.67
2023-03-11T05:13:54.916Z,97362.23
2023-03-11T05:16:23.961Z,97362.35
2023-03-11T05:18:52.417Z,97357.27
2023-03-11T05:21:20.972Z,97351.72
2023-03-11T05:23:49.965Z,97346.89
2023-03-11T05:26:18.642Z,97343.02
2023-03-11T05:28:47.073Z,97343.11
2023-03-11T05:31:15.720Z,97343.20
2023-03-11T05:33:44.271Z,97337.62
2023-03-11T05:36:14.004Z,97338.52
2023-03-11T05:38:43.788Z,97341.36
2023-03-11T05:41:12.464Z,97335.86
2023-03-11T05:43:42.638Z,97331.25
2023-03-11T05:46:12.473Z,97326.77
2023-03-11T05:48:41.227Z,97327.84
2023-03-11T05:51:10.859Z,97329.59
2023-03-11T05:53:46.498Z,97321.67
2023-03-11T05:56:16.428Z,97317.89
2023-03-11T05:58:45.044Z,97313.70
2023-03-11T06:01:16.430Z,97315.77
2023-03-11T06:03:45.769Z,97322.80
2023-03-11T06:06:14.838Z,97320.84
2023-03-11T06:08:49.576Z,97315.42
2023-03-11T06:11:18.649Z,97314.61
2023-03-11T06:13:47.837Z,97314.28
2023-03-11T06:16:16.478Z,97312.42
2023-03-11T06:18:44.902Z,97316.25
2023-03-11T06:21:21.999Z,97322.16
2023-03-11T06:23:51.079Z,97312.84
2023-03-11T06:26:21.506Z,97295.66
2023-03-11T06:28:51.349Z,97299.27
2023-03-11T06:31:28.368Z,97299.13
2023-03-11T06:34:01.448Z,97305.48
2023-03-11T06:36:29.862Z,97304.27
2023-03-11T06:38:58.363Z,97309.05
2023-03-11T06:41:27.238Z,97309.89
2023-03-11T06:44:00.034Z,97303.77
2023-03-11T06:46:29.552Z,97304.25
2023-03-11T06:48:58.729Z,97302.47
2023-03-11T06:51:27.317Z,97301.23
2023-03-11T06:53:55.888Z,97301.38
2023-03-11T06:56:24.887Z,97294.60
2023-03-11T06:58:57.668Z,97287.60
2023-03-11T07:01:28.967Z,97283.34
2023-03-11T07:04:04.133Z,97281.52
2023-03-11T07:06:33.761Z,97280.13
2023-03-11T07:09:09.178Z,97280.80
2023-03-11T07:11:40.457Z,97273.79
2023-03-11T07:14:12.203Z,97274.16
2023-03-11T07:16:44.110Z,97273.94
2023-03-11T07:19:18.797Z,97274.98
2023-03-11T07:21:47.454Z,97272.16
2023-03-11T07:24:16.324Z,97264.95
2023-03-11T07:26:44.776Z,97265.16
2023-03-11T07:29:13.540Z,97258.70
2023-03-11T07:31:42.267Z,97255.23
2023-03-11T07:34:12.316Z,97250.07
2023-03-11T07:36:41.424Z,97252.05
2023-03-11T07:39:13.703Z,97246.96
2023-03-11T07:41:42.564Z,97245.64
2023-03-11T07:44:13.066Z,97238.71
2023-03-11T07:46:42.021Z,97238.52
2023-03-11T07:49:11.407Z,97234.67
2023-03-11T07:51:44.171Z,97232.90
2023-03-11T07:54:13.043Z,97228.27
2023-03-11T07:56:41.728Z,97224.91
2023-03-11T07:59:11.000Z,97222.52
2023-03-11T08:01:41.566Z,97217.99
2023-03-11T08:04:14.353Z,97215.50
2023-03-11T08:06:46.250Z,97216.30
2023-03-11T08:09:15.266Z,97211.98
2023-03-11T08:11:43.684Z,97210.60
2023-03-11T08:14:12.401Z,97208.06
2023-03-11T08:16:42.220Z,97197.84
2023-03-11T08:19:14.301Z,97203.64
2023-03-11T08:21:42.764Z,97202.26
2023-03-11T08:24:13.412Z,97202.52
2023-03-11T08:26:42.458Z,97202.71
2023-03-11T08:29:11.474Z,97206.33
2023-03-11T08:31:39.857Z,97204.03
2023-03-11T08:34:10.853Z,97202.35
2023-03-11T08:36:39.237Z,97201.76
2023-03-11T08:39:08.709Z,97193.68
2023-03-11T08:41:37.272Z,97190.94
2023-03-11T08:44:07.114Z,97189.38
2023-03-11T08:46:40.624Z,97190.25
2023-03-11T08:49:10.135Z,97188.92
2023-03-11T08:51:38.590Z,97182.52
2023-03-11T08:54:07.392Z,97184.72
2023-03-11T08:56:36.917Z,97182.52
2023-03-11T08:59:05.487Z,97179.23
2023-03-11T09:01:33.907Z,97177.32
2023-03-11T09:04:02.838Z,97180.19
2023-03-11T09:06:31.314Z,97184.94
2023-03-11T09:09:00.316Z,97187.11
2023-03-11T09:11:28.868Z,97183.80
2023-03-11T09:13:57.285Z,97181.55
2023-03-11T09:16:26.318Z,97184.49
2023-03-11T09:18:55.282Z,97182.08
2023-03-11T09:21:23.713Z,97180.62
2023-03-11T09:23:52.672Z,97185.06
2023-03-11T09:26:22.282Z,97189.16
2023-03-11T09:28:50.859Z,97189.86
2023-03-11T09:31:19.920Z,97195.58
2023-03-11T09:33:48.813Z,97194.82
2023-03-11T09:36:22.884Z,97194.67
2023-03-11T09:38:51.674Z,97191.93
2023-03-11T09:41:40.028Z,97191.80
2023-03-11T09:44:23.173Z,97192.20
2023-03-11T09:47:11.457Z,97188.37
2023-03-11T09:50:06.766Z,97186.77
2023-03-11T09:52:51.355Z,97176.50
2023-03-11T09:55:31.745Z,97175.05
2023-03-11T09:58:03.628Z,97173.14
2023-03-11T10:00:32.241Z,97176.91
2023-03-11T10:03:02.381Z,97173.18
2023-03-11T10:05:31.099Z,97173.06
2023-03-11T10:08:28.099Z,97169.05
2023-03-11T10:11:16.712Z,97165.39
2023-03-11T10:14:03.349Z,97168.92
2023-03-11T10:16:40.661Z,97169.30
2023-03-11T10:19:21.600Z,97169.66
2023-03-11T10:22:14.148Z,97159.88
2023-03-11T10:24:54.314Z,97154.94
2023-03-11T10:27:28.927Z,97159.35
2023-03-11T10:29:57.403Z,97157.98
2023-03-11T10:32:27.713Z,97154.98
2023-03-11T10:35:20.694Z,97155.40
2023-03-11T10:37:58.008Z,97153.38
2023-03-11T10:40:37.236Z,97150.83
2023-03-11T10:43:27.345Z,97146.49
2023-03-11T10:45:55.894Z,97138.08
2023-03-11T10:48:25.772Z,97136.32
2023-03-11T10:51:10.149Z,97133.63
2023-03-11T10:54:06.240Z,97124.83
2023-03-11T10:56:37.378Z,97124.09
2023-03-11T10:59:24.580Z,97122.56
2023-03-11T11:01:56.866Z,97120.14
2023-03-11T11:04:39.275Z,97115.58
2023-03-11T11:07:31.440Z,97107.96
2023-03-11T11:10:15.302Z,97103.98
2023-03-11T11:13:05.479Z,97102.08
2023-03-11T11:15:40.513Z,97096.34
2023-03-11T11:18:30.105Z,97088.10
2023-03-11T11:21:09.900Z,97082.63
2023-03-11T11:23:38.432Z,97080.14
2023-03-11T11:26:19.641Z,97075.47
2023-03-11T11:29:07.737Z,97072.97
2023-03-11T11:31:45.752Z,97069.64
2023-03-11T11:34:34.982Z,97068.14
2023-03-11T11:37:05.533Z,97068.16
2023-03-11T11:39:43.521Z,97070.80
2023-03-11T11:42:14.800Z,97067.02
2023-03-11T11:44:44.072Z,97064.27
2023-03-11T11:47:18.297Z,97059.86
2023-03-11T11:49:54.720Z,97060.98
2023-03-11T11:52:27.784Z,97058.59
2023-03-11T11:55:08.020Z,97052.55
2023-03-11T11:57:37.269Z,97052.38
2023-03-11T12:00:21.285Z,97051.39
2023-03-11T12:02:51.064Z,97052.63
2023-03-11T12:05:29.429Z,97054.02
2023-03-11T12:08:01.716Z,97056.54
2023-03-11T12:10:42.278Z,97060.08
2023-03-11T12:13:29.396Z,97063.86
2023-03-11T12:16:31.810Z,97060.09
2023-03-11T12:19:12.376Z,97063.39
2023-03-11T12:22:05.869Z,97070.39
2023-03-11T12:24:50.844Z,97075.83
2023-03-11T12:27:28.962Z,97079.20
2023-03-11T12:30:01.620Z,97084.38
2023-03-11T12:32:40.385Z,97084.55
2023-03-11T12:35:17.842Z,97087.28
2023-03-11T12:37:46.361Z,97091.29
2023-03-11T12:40:42.794Z,97101.12
2023-03-11T12:43:36.091Z,97101.77
2023-03-11T12:46:07.800Z,97098.93
2023-03-11T12:48:43.902Z,97102.00
2023-03-11T12:51:27.550Z,97104.06
2023-03-11T12:53:56.749Z,97105.97
2023-03-11T12:56:39.965Z,97114.29
2023-03-11T12:59:11.406Z,97120.23
2023-03-11T13:02:04.533Z,97121.44
2023-03-11T13:04:42.269Z,97118.61
2023-03-11T13:07:22.628Z,97117.48
2023-03-11T13:10:29.105Z,97114.98
2023-03-11T13:12:57.807Z,97119.56
2023-03-11T13:15:31.401Z,97116.46
2023-03-11T13:18:14.808Z,97114.01
2023-03-11T13:20:49.443Z,97113.73
2023-03-11T13:23:22.124Z,97113.94
2023-03-11T13:25:50.503Z,97113.80
2023-03-11T13:28:28.211Z,97111.16
2023-03-11T13:31:05.872Z,97111.95
2023-03-11T13:33:53.739Z,97116.35
2023-03-11T13:36:41.157Z,97115.86
2023-03-11T13:39:15.513Z,97117.39
2023-03-11T13:41:45.328Z,97116.79
2023-03-11T13:44:19.820Z,97117.40
2023-03-11T13:46:50.953Z,97115.30
2023-03-11T13:49:56.450Z,97117.08
2023-03-11T13:52:33.056Z,97118.35
2023-03-11T13:55:02.809Z,97123.00
2023-03-11T13:57:36.195Z,97122.22
2023-03-11T14:00:15.864Z,97123.42
2023-03-11T14:02:47.773Z,97120.48
2023-03-11T14:05:23.062Z,97124.81
2023-03-11T14:07:51.613Z,97124.46
2023-03-11T14:10:29.424Z,97124.56
2023-03-11T14:13:07.313Z,97118.99
2023-03-11T14:15:44.102Z,97124.28
2023-03-11T14:18:30.997Z,97122.42
2023-03-11T14:21:00.045Z,97122.36
2023-03-11T14:23:37.376Z,97125.95
2023-03-11T14:26:12.993Z,97126.70
2023-03-11T14:28:45.190Z,97131.13
2023-03-11T14:31:29.527Z,97132.56
2023-03-11T14:34:11.053Z,97134.52
2023-03-11T14:36:52.568Z,97133.80
2023-03-11T14:39:27.640Z,97133.28
2023-03-11T14:42:27.020Z,97134.29
2023-03-11T14:44:55.534Z,97141.70
2023-03-11T14:47:35.999Z,97141.36
2023-03-11T14:50:06.979Z,97141.77
2023-03-11T14:52:48.997Z,97141.27
2023-03-11T14:55:29.526Z,97146.45
2023-03-11T14:58:04.751Z,97147.26
2023-03-11T15:00:40.399Z,97145.05
2023-03-11T15:03:17.464Z,97145.24
2023-03-11T15:05:49.868Z,97139.79
2023-03-11T15:08:20.292Z,97145.35
2023-03-11T15:11:28.757Z,97151.18
2023-03-11T15:14:18.151Z,97148.45
2023-03-11T15:16:46.706Z,97147.80
2023-03-11T15:19:44.214Z,97152.43
2023-03-11T15:22:40.163Z,97155.48
2023-03-11T15:25:17.059Z,97164.54
2023-03-11T15:27:46.012Z,97173.89
2023-03-11T15:30:24.558Z,97178.14
2023-03-11T15:32:53.578Z,97186.61
2023-03-11T15:35:30.599Z,97188.72
2023-03-11T15:38:25.691Z,97197.94
2023-03-11T15:41:02.914Z,97199.94
2023-03-11T15:43:48.400Z,97213.38
2023-03-11T15:46:16.969Z,97218.81
2023-03-11T15:48:45.533Z,97223.58
2023-03-11T15:51:19.577Z,97230.66
2023-03-11T15:53:48.641Z,97234.77
2023-03-11T15:56:23.154Z,97246.59
2023-03-11T15:58:51.736Z,97248.26
2023-03-11T16:01:24.008Z,97252.23
2023-03-11T16:03:52.498Z,97262.23
2023-03-11T16:06:23.018Z,97260.42
2023-03-11T16:08:51.629Z,97266.33
2023-03-11T16:11:20.175Z,97268.76
2023-03-11T16:13:48.654Z,97275.29
2023-03-11T16:16:18.049Z,97274.89
2023-03-11T16:18:46.538Z,97280.98
2023-03-11T16:21:18.089Z,97279.83
2023-03-11T16:23:51.960Z,97282.45
2023-03-11T16:26:22.746Z,97289.42
2023-03-11T16:28:51.319Z,97294.71
2023-03-11T16:31:20.043Z,97295.42
2023-03-11T16:33:48.589Z,97304.92
2023-03-11T16:36:17.383Z,97309.90
2023-03-11T16:38:48.311Z,97316.34
2023-03-11T16:41:17.596Z,97319.73
2023-03-11T16:43:46.608Z,97319.59
2023-03-11T16:46:15.182Z,97319.99
2023-03-11T16:48:43.680Z,97321.83
2023-03-11T16:51:12.458Z,97323.27
2023-03-11T16:53:41.188Z,97324.41
2023-03-11T16:56:09.732Z,97327.70
2023-03-11T16:58:38.532Z,97332.52
2023-03-11T17:01:07.215Z,97339.91
2023-03-11T17:03:42.746Z,97339.98
2023-03-11T17:06:11.758Z,97342.80
2023-03-11T17:08:40.482Z,97346.98
2023-03-11T17:11:17.627Z,97348.24
2023-03-11T17:13:46.536Z,97347.21
2023-03-11T17:16:15.255Z,97351.12
2023-03-11T17:18:43.755Z,97356.56
2023-03-11T17:21:14.916Z,97363.59
2023-03-11T17:23:44.247Z,97376.23
2023-03-11T17:26:17.413Z,97381.96
2023-03-11T17:28:46.094Z,97387.02
2023-03-11T17:31:16.384Z,97387.89
2023-03-11T17:33:45.827Z,97396.33
2023-03-11T17:36:16.653Z,97401.14
2023-03-11T17:38:46.716Z,97407.11
2023-03-11T17:41:17.410Z,97412.81
2023-03-11T17:43:46.292Z,97414.99
2023-03-11T17:46:19.123Z,97419.90
2023-03-11T17:48:49.340Z,97429.98
2023-03-11T17:51:21.677Z,97442.52
2023-03-11T17:53:50.459Z,97449.60
2023-03-11T17:56:20.728Z,97465.26
2023-03-11T17:58:50.288Z,97465.55
2023-03-11T18:01:22.767Z,97473.03
2023-03-11T18:03:51.727Z,97484.23
2023-03-11T18:06:22.020Z,97495.95
2023-03-11T18:08:50.771Z,97512.80
2023-03-11T18:11:22.934Z,97524.02
2023-03-11T18:13:51.952Z,97534.52
2023-03-11T18:16:23.334Z,97542.60
2023-03-11T18:18:52.700Z,97552.90
2023-03-11T18:21:23.270Z,97562.02
2023-03-11T18:23:56.431Z,97580.61
2023-03-11T18:26:26.434Z,97609.40
2023-03-11T18:28:56.580Z,97620.23
2023-03-11T18:31:26.087Z,97624.25
2023-03-11T18:34:03.043Z,97641.46
2023-03-11T18:36:37.738Z,97630.05
2023-03-11T18:39:06.733Z,97636.47
2023-03-11T18:41:35.723Z,97637.63
2023-03-11T18:44:04.628Z,97649.04
2023-03-11T18:46:33.237Z,97650.77
2023-03-11T18:49:02.701Z,97660.80
2023-03-11T18:51:32.425Z,97664.02
2023-03-11T18:54:02.137Z,97673.83
2023-03-11T18:56:33.469Z,97687.66
2023-03-11T18:59:02.295Z,97689.08
2023-03-11T19:01:32.134Z,97694.59
2023-03-11T19:04:00.904Z,97707.06
2023-03-11T19:06:29.660Z,97719.09
2023-03-11T19:08:58.847Z,97714.41
2023-03-11T19:11:27.467Z,97718.70
2023-03-11T19:13:56.225Z,97723.92
2023-03-11T19:16:25.756Z,97739.09
2023-03-11T19:18:55.581Z,97744.48
2023-03-11T19:21:26.084Z,97745.66
2023-03-11T19:23:56.761Z,97744.60
2023-03-11T19:26:41.505Z,97741.75
2023-03-11T19:29:13.037Z,97737.19
2023-03-11T19:31:43.986Z,97743.09
2023-03-11T19:34:12.874Z,97747.53
2023-03-11T19:36:41.564Z,97761.17
2023-03-11T19:39:10.211Z,97767.98
2023-03-11T19:41:38.897Z,97774.71
2023-03-11T19:44:07.725Z,97772.05
2023-03-11T19:46:36.745Z,97773.97
2023-03-11T19:49:05.388Z,97787.53
2023-03-11T19:51:48.491Z,97786.97
2023-03-11T19:54:19.164Z,97785.73
2023-03-11T19:56:48.455Z,97784.02
2023-03-11T19:59:17.536Z,97789.03
2023-03-11T20:01:46.206Z,97792.17
2023-03-11T20:04:15.620Z,97794.10
2023-03-11T20:06:45.151Z,97794.50
2023-03-11T20:09:16.001Z,97800.21
2023-03-11T20:11:45.895Z,97806.05
2023-03-11T20:14:14.791Z,97814.95
2023-03-11T20:16:43.568Z,97817.09
2023-03-11T20:19:12.201Z,97824.70
2023-03-11T20:21:41.166Z,97834.16
2023-03-11T20:24:10.583Z,97836.55
2023-03-11T20:26:39.263Z,97850.50
2023-03-11T20:29:08.023Z,97865.33
2023-03-11T20:31:36.993Z,97876.81
2023-03-11T20:34:05.681Z,97883.76
2023-03-11T20:36:34.627Z,97892.91
2023-03-11T20:39:04.131Z,97895.33
2023-03-11T20:41:40.560Z,97889.84
2023-03-11T20:44:11.920Z,97909.14
2023-03-11T20:46:41.419Z,97909.63
2023-03-11T20:49:10.178Z,97915.64
2023-03-11T20:51:41.428Z,97917.14
2023-03-11T20:54:10.530Z,97926.58
2023-03-11T20:56:39.068Z,97930.57
2023-03-11T20:59:07.826Z,97942.77
2023-03-11T21:01:36.728Z,97940.05
2023-03-11T21:04:05.982Z,97950.66
2023-03-11T21:06:37.039Z,97944.95
2023-03-11T21:09:08.422Z,97954.01
2023-03-11T21:11:37.178Z,97952.55
2023-03-11T21:14:06.752Z,97950.34
2023-03-11T21:16:37.399Z,97956.98
2023-03-11T21:19:08.677Z,97979.27
2023-03-11T21:21:37.756Z,97972.73
2023-03-11T21:24:06.858Z,97974.05
2023-03-11T21:26:35.665Z,97981.91
2023-03-11T21:29:04.619Z,97981.49
2023-03-11T21:31:33.434Z,97989.82
2023-03-11T21:34:02.023Z,98000.43
2023-03-11T21:36:30.596Z,98007.45
2023-03-11T21:39:00.444Z,98006.48
2023-03-11T21:41:31.079Z,98008.29
2023-03-11T21:43:59.748Z,98016.29
2023-03-11T21:46:31.055Z,98033.20
2023-03-11T21:49:00.646Z,98033.23
2023-03-11T21:51:29.525Z,98031.61
2023-03-11T21:53:59.501Z,98031.27
2023-03-11T21:56:28.897Z,98039.58
2023-03-11T21:58:57.629Z,98043.65
2023-03-11T22:01:26.440Z,98042.20
2023-03-11T22:03:55.632Z,98058.16
2023-03-11T22:06:24.523Z,98054.98
2023-03-11T22:08:53.443Z,98052.58
2023-03-11T22:11:21.779Z,98054.36
2023-03-11T22:13:51.754Z,98060.61
2023-03-11T22:16:21.778Z,98064.58
2023-03-11T22:18:51.108Z,98068.64
2023-03-11T22:21:23.611Z,98069.46
2023-03-11T22:23:52.367Z,98082.52
2023-03-11T22:26:20.736Z,98101.81
2023-03-11T22:28:49.337Z,98101.40
2023-03-11T22:31:19.357Z,98103.07
2023-03-11T22:33:47.956Z,98103.39
2023-03-11T22:36:16.517Z,98111.09
2023-03-11T22:38:45.858Z,98111.95
2023-03-11T22:41:14.869Z,98128.32
2023-03-11T22:43:43.395Z,98132.84
2023-03-11T22:46:11.921Z,98134.84
2023-03-11T22:48:40.392Z,98139.38
2023-03-11T22:51:09.249Z,98137.05
2023-03-11T22:53:37.773Z,98140.50
2023-03-11T22:56:12.118Z,98164.59
2023-03-11T22:58:41.242Z,98161.45
2023-03-11T23:01:10.282Z,98170.40
2023-03-11T23:03:39.109Z,98165.98
2023-03-11T23:06:09.483Z,98166.34
2023-03-11T23:08:38.139Z,98175.38
2023-03-11T23:11:09.007Z,98180.03
2023-03-11T23:13:37.794Z,98177.96
2023-03-11T23:16:09.356Z,98181.10
2023-03-11T23:18:38.311Z,98179.73
2023-03-11T23:21:18.364Z,98196.79
2023-03-11T23:23:47.564Z,98200.44
2023-03-11T23:26:16.759Z,98202.21
2023-03-11T23:28:45.644Z,98199.79
2023-03-11T23:31:15.832Z,98204.33
2023-03-11T23:33:45.204Z,98207.10
2023-03-11T23:36:16.757Z,98217.16
2023-03-11T23:38:46.019Z,98203.17
2023-03-11T23:41:16.753Z,98195.75
2023-03-11T23:43:45.645Z,98205.65
2023-03-11T23:46:14.855Z,98218.07
2023-03-11T23:48:43.633Z,98203.66
2023-03-11T23:51:12.522Z,98214.29
2023-03-11T23:53:41.203Z,98231.91
2023-03-11T23:56:14.906Z,98226.15
2023-03-11T23:58:43.817Z,98251.64
